createdAt,value
2023-04-21T00:01:38.873Z,38.27
2023-04-21T00:04:24.361Z,39.30
2023-04-21T00:07:09.512Z,39.43
2023-04-21T00:09:54.869Z,39.80
2023-04-21T00:12:40.323Z,39.93
2023-04-21T00:15:25.905Z,38.63
2023-04-21T00:18:11.182Z,40.43
2023-04-21T00:20:57.489Z,38.50
2023-04-21T00:23:42.296Z,40.00
2023-04-21T00:26:27.646Z,40.77
2023-04-21T00:29:13.001Z,39.17
2023-04-21T00:31:58.307Z,38.63
2023-04-21T00:34:43.639Z,39.42
2023-04-21T00:37:29.070Z,38.37
2023-04-21T00:40:14.143Z,36.47
2023-04-21T00:42:59.588Z,38.13
2023-04-21T00:45:46.066Z,36.57
2023-04-21T00:48:31.593Z,36.25
2023-04-21T00:51:17.370Z,37.57
2023-04-21T00:54:05.265Z,34.67
2023-04-21T00:56:50.445Z,36.07
2023-04-21T00:59:35.617Z,36.13
2023-04-21T01:02:22.451Z,36.83
2023-04-21T01:05:08.624Z,35.40
2023-04-21T01:07:53.916Z,37.47
2023-04-21T01:10:38.975Z,37.20
2023-04-21T01:13:24.427Z,34.95
2023-04-21T01:16:16.539Z,36.15
2023-04-21T01:19:02.146Z,36.47
2023-04-21T01:21:47.307Z,38.30
2023-04-21T01:24:46.289Z,42.28
2023-04-21T01:27:31.616Z,44.33
2023-04-21T01:30:16.812Z,42.63
2023-04-21T01:33:02.359Z,41.03
2023-04-21T01:35:47.531Z,34.43
2023-04-21T01:38:32.714Z,34.70
2023-04-21T01:41:18.395Z,34.30
2023-04-21T01:44:03.776Z,34.93
2023-04-21T01:46:48.793Z,35.92
2023-04-21T01:49:33.775Z,35.65
2023-04-21T01:52:19.345Z,34.50
2023-04-21T01:55:04.929Z,34.78
2023-04-21T01:57:51.322Z,34.60
2023-04-21T02:00:36.202Z,34.90
2023-04-21T02:03:21.778Z,33.75
2023-04-21T02:06:07.434Z,34.33
2023-04-21T02:08:52.542Z,33.57
2023-04-21T02:11:37.973Z,34.45
2023-04-21T02:14:26.880Z,34.47
2023-04-21T02:17:12.236Z,34.72
2023-04-21T02:19:57.695Z,33.45
2023-04-21T02:22:43.139Z,33.53
2023-04-21T02:25:28.545Z,33.83
2023-04-21T02:28:13.427Z,34.40
2023-04-21T02:30:58.340Z,34.42
2023-04-21T02:33:43.860Z,33.63
2023-04-21T02:36:29.110Z,34.00
2023-04-21T02:39:14.407Z,32.97
2023-04-21T02:41:59.688Z,32.92
2023-04-21T02:44:45.032Z,32.95
2023-04-21T02:47:29.927Z,31.45
2023-04-21T02:50:15.461Z,30.90
2023-04-21T02:53:00.641Z,31.20
2023-04-21T02:55:45.878Z,30.15
2023-04-21T02:58:31.164Z,30.60
2023-04-21T03:01:16.066Z,29.10
2023-04-21T03:04:01.449Z,28.67
2023-04-21T03:06:46.757Z,28.00
2023-04-21T03:09:32.275Z,29.13
2023-04-21T03:12:17.620Z,28.60
2023-04-21T03:15:03.415Z,27.67
2023-04-21T03:17:48.316Z,28.35
2023-04-21T03:20:33.813Z,28.08
2023-04-21T03:23:19.243Z,27.42
2023-04-21T03:26:10.180Z,26.80
2023-04-21T03:28:55.081Z,25.92
2023-04-21T03:31:40.033Z,26.98
2023-04-21T03:34:25.364Z,26.80
2023-04-21T03:37:10.293Z,27.92
2023-04-21T03:39:55.698Z,30.42
2023-04-21T03:42:41.488Z,33.13
2023-04-21T03:45:26.483Z,32.22
2023-04-21T03:48:11.546Z,29.70
2023-04-21T03:50:56.934Z,27.23
2023-04-21T03:53:42.442Z,27.85
2023-04-21T03:56:27.788Z,27.50
2023-04-21T03:59:13.197Z,26.85
2023-04-21T04:01:58.261Z,29.40
2023-04-21T04:04:43.875Z,29.77
2023-04-21T04:07:28.937Z,30.25
2023-04-21T04:10:14.262Z,29.83
2023-04-21T04:12:59.670Z,30.05
2023-04-21T04:15:45.121Z,31.25
2023-04-21T04:18:30.330Z,30.52
2023-04-21T04:21:15.854Z,32.25
2023-04-21T04:24:00.979Z,32.08
2023-04-21T04:26:46.386Z,32.60
2023-04-21T04:29:32.233Z,32.80
2023-04-21T04:32:17.370Z,32.95
2023-04-21T04:35:02.269Z,32.85
2023-04-21T04:37:47.191Z,34.42
2023-04-21T04:40:32.026Z,32.38
2023-04-21T04:43:17.392Z,32.45
2023-04-21T04:46:03.425Z,33.88
2023-04-21T04:48:48.393Z,32.67
2023-04-21T04:51:33.631Z,32.37
2023-04-21T04:54:19.414Z,32.35
2023-04-21T04:57:04.761Z,32.50
2023-04-21T04:59:55.064Z,34.00
2023-04-21T05:02:41.128Z,33.63
2023-04-21T05:05:26.464Z,31.98
2023-04-21T05:08:11.977Z,31.50
2023-04-21T05:10:57.191Z,32.22
2023-04-21T05:13:42.527Z,31.67
2023-04-21T05:16:28.017Z,30.95
2023-04-21T05:19:13.056Z,31.02
2023-04-21T05:22:00.957Z,31.15
2023-04-21T05:24:46.325Z,31.33
2023-04-21T05:27:31.753Z,32.53
2023-04-21T05:30:17.185Z,43.55
2023-04-21T05:33:02.643Z,35.35
2023-04-21T05:35:47.814Z,37.50
2023-04-21T05:38:33.070Z,38.80
2023-04-21T05:41:18.368Z,40.10
2023-04-21T05:44:03.867Z,40.08
2023-04-21T05:46:49.192Z,37.38
2023-04-21T05:49:34.764Z,35.17
2023-04-21T05:52:22.688Z,31.83
2023-04-21T05:55:08.025Z,31.90
2023-04-21T05:57:52.982Z,31.42
2023-04-21T06:00:37.752Z,31.52
2023-04-21T06:03:23.351Z,31.02
2023-04-21T06:06:08.919Z,29.13
2023-04-21T06:08:54.432Z,28.75
2023-04-21T06:11:39.481Z,28.58
2023-04-21T06:14:24.865Z,26.48
2023-04-21T06:17:10.077Z,28.23
2023-04-21T06:19:55.464Z,28.17
2023-04-21T06:22:40.738Z,40.22
2023-04-21T06:25:26.142Z,203.05
2023-04-21T06:28:11.372Z,26.67
2023-04-21T06:30:56.632Z,26.65
2023-04-21T06:33:42.041Z,25.13
2023-04-21T06:36:27.307Z,25.85
2023-04-21T06:39:12.666Z,24.55
2023-04-21T06:41:58.121Z,23.60
2023-04-21T06:44:43.474Z,24.80
2023-04-21T06:47:28.230Z,21.75
2023-04-21T06:50:13.619Z,22.08
2023-04-21T06:52:58.365Z,20.42
2023-04-21T06:55:43.878Z,19.10
2023-04-21T06:58:29.085Z,19.50
2023-04-21T07:01:14.014Z,19.67
2023-04-21T07:03:59.686Z,20.27
2023-04-21T07:06:44.868Z,18.63
2023-04-21T07:09:30.088Z,18.42
2023-04-21T07:12:15.065Z,18.08
2023-04-21T07:15:00.170Z,17.38
2023-04-21T07:17:45.023Z,16.40
2023-04-21T07:20:30.479Z,17.10
2023-04-21T07:23:15.365Z,17.48
2023-04-21T07:26:00.653Z,16.80
2023-04-21T07:28:45.557Z,16.95
2023-04-21T07:31:30.519Z,16.98
2023-04-21T07:34:15.886Z,16.88
2023-04-21T07:37:00.710Z,16.88
2023-04-21T07:39:46.042Z,17.38
2023-04-21T07:42:31.518Z,16.60
2023-04-21T07:45:16.970Z,17.10
2023-04-21T07:48:02.334Z,17.05
2023-04-21T07:50:47.669Z,37.28
2023-04-21T07:53:33.028Z,16.05
2023-04-21T07:56:18.365Z,15.65
2023-04-21T07:59:03.921Z,16.70
2023-04-21T08:01:48.855Z,16.80
2023-04-21T08:04:34.666Z,15.32
2023-04-21T08:07:19.887Z,15.95
2023-04-21T08:10:06.881Z,16.08
2023-04-21T08:12:52.000Z,15.15
2023-04-21T08:15:37.032Z,16.17
2023-04-21T08:18:22.730Z,16.23
2023-04-21T08:21:08.262Z,15.50
2023-04-21T08:23:53.661Z,16.05
2023-04-21T08:26:39.208Z,15.32
2023-04-21T08:29:24.419Z,16.15
2023-04-21T08:32:09.241Z,15.38
2023-04-21T08:34:55.078Z,14.95
2023-04-21T08:37:40.192Z,14.82
2023-04-21T08:40:33.615Z,15.57
2023-04-21T08:43:19.426Z,15.73
2023-04-21T08:46:07.864Z,14.80
2023-04-21T08:48:55.117Z,14.75
2023-04-21T08:51:40.705Z,14.95
2023-04-21T08:54:26.369Z,14.65
2023-04-21T08:57:15.818Z,14.30
2023-04-21T09:00:01.618Z,15.70
2023-04-21T09:03:02.269Z,15.05
2023-04-21T09:05:58.384Z,14.15
2023-04-21T09:08:53.435Z,13.85
2023-04-21T09:11:38.777Z,14.70
2023-04-21T09:14:31.837Z,15.57
2023-04-21T09:17:18.350Z,15.23
2023-04-21T09:20:19.647Z,14.68
2023-04-21T09:23:05.513Z,14.02
2023-04-21T09:25:50.506Z,14.20
2023-04-21T09:28:35.996Z,14.02
2023-04-21T09:31:24.182Z,13.65
2023-04-21T09:34:26.466Z,14.02
2023-04-21T09:37:14.169Z,13.30
2023-04-21T09:42:48.498Z,13.38
2023-04-21T09:45:40.089Z,12.25
2023-04-21T09:48:32.137Z,11.82
2023-04-21T09:54:29.151Z,11.60
2023-04-21T09:57:20.976Z,12.38
2023-04-21T10:00:07.795Z,11.45
2023-04-21T10:02:54.541Z,11.90
2023-04-21T10:05:42.334Z,11.60
2023-04-21T10:08:49.629Z,11.35
2023-04-21T10:11:35.653Z,9.93
2023-04-21T10:14:21.373Z,10.05
2023-04-21T10:17:09.435Z,11.77
2023-04-21T10:19:57.558Z,10.95
2023-04-21T10:22:43.436Z,11.50
2023-04-21T10:25:29.923Z,11.52
2023-04-21T10:28:18.649Z,9.93
2023-04-21T10:31:17.088Z,9.77
2023-04-21T10:34:05.179Z,10.57
2023-04-21T10:36:56.743Z,11.10
2023-04-21T10:39:53.901Z,11.20
2023-04-21T10:42:39.163Z,9.23
2023-04-21T10:45:27.491Z,8.52
2023-04-21T10:48:13.842Z,8.60
2023-04-21T10:50:58.798Z,9.18
2023-04-21T10:53:44.209Z,8.43
2023-04-21T10:56:29.696Z,7.75
2023-04-21T10:59:15.708Z,7.47
2023-04-21T11:02:00.992Z,8.45
2023-04-21T11:04:51.386Z,8.90
2023-04-21T11:07:36.787Z,9.38
2023-04-21T11:10:22.277Z,8.30
2023-04-21T11:13:07.876Z,8.30
2023-04-21T11:16:06.814Z,7.60
2023-04-21T11:18:51.902Z,7.43
2023-04-21T11:21:37.385Z,7.30
2023-04-21T11:24:23.512Z,7.40
2023-04-21T11:27:08.723Z,7.28
2023-04-21T11:29:53.820Z,6.95
2023-04-21T11:32:39.199Z,7.00
2023-04-21T11:35:25.244Z,8.82
2023-04-21T11:38:10.262Z,9.40
2023-04-21T11:40:55.603Z,8.35
2023-04-21T11:43:45.578Z,7.10
2023-04-21T11:46:31.049Z,5.85
2023-04-21T11:49:16.430Z,5.82
2023-04-21T11:52:01.760Z,6.55
2023-04-21T11:54:47.494Z,6.57
2023-04-21T11:57:33.826Z,7.43
2023-04-21T12:00:19.841Z,6.30
2023-04-21T12:03:09.189Z,5.90
2023-04-21T12:05:56.523Z,6.20
2023-04-21T12:08:41.738Z,8.35
2023-04-21T12:11:28.590Z,5.30
2023-04-21T12:14:15.156Z,4.75
2023-04-21T12:17:00.781Z,4.57
2023-04-21T12:19:46.407Z,5.25
2023-04-21T12:22:31.788Z,5.20
2023-04-21T12:25:17.175Z,4.72
2023-04-21T12:28:02.240Z,5.00
2023-04-21T12:30:47.690Z,4.75
2023-04-21T12:33:33.539Z,4.57
2023-04-21T12:36:18.982Z,4.63
2023-04-21T12:39:04.352Z,4.40
2023-04-21T12:41:49.618Z,4.40
2023-04-21T12:44:34.726Z,4.35
2023-04-21T12:47:19.847Z,4.03
2023-04-21T12:50:05.977Z,5.00
2023-04-21T12:52:51.194Z,4.72
2023-04-21T12:55:36.715Z,3.92
2023-04-21T12:58:22.083Z,4.28
2023-04-21T13:01:07.648Z,4.10
2023-04-21T13:03:53.157Z,4.80
2023-04-21T13:06:39.157Z,4.68
2023-04-21T13:09:24.380Z,4.53
2023-04-21T13:12:09.267Z,4.43
2023-04-21T13:14:54.553Z,4.50
2023-04-21T13:17:40.556Z,35.22
2023-04-21T13:20:25.671Z,4.50
2023-04-21T13:23:11.061Z,4.28
2023-04-21T13:25:55.913Z,4.43
2023-04-21T13:28:41.525Z,4.18
2023-04-21T13:31:26.844Z,4.30
2023-04-21T13:34:11.942Z,4.28
2023-04-21T13:36:57.427Z,4.50
2023-04-21T13:39:43.473Z,4.10
2023-04-21T13:42:28.806Z,4.15
2023-04-21T13:45:13.624Z,4.40
2023-04-21T13:47:59.113Z,4.70
2023-04-21T13:50:44.371Z,3.88
2023-04-21T13:53:29.738Z,4.57
2023-04-21T13:56:14.656Z,5.03
2023-04-21T13:59:00.018Z,4.65
2023-04-21T14:01:45.462Z,4.85
2023-04-21T14:04:30.857Z,4.30
2023-04-21T14:07:16.182Z,4.28
2023-04-21T14:10:01.916Z,4.55
2023-04-21T14:12:47.070Z,4.68
2023-04-21T14:15:32.520Z,4.82
2023-04-21T14:18:18.027Z,4.75
2023-04-21T14:21:04.239Z,5.05
2023-04-21T14:23:49.208Z,4.93
2023-04-21T14:26:36.026Z,5.07
2023-04-21T14:29:22.470Z,4.88
2023-04-21T14:32:07.652Z,4.95
2023-04-21T14:34:53.010Z,5.30
2023-04-21T14:37:38.975Z,5.30
2023-04-21T14:40:24.660Z,5.57
2023-04-21T14:43:09.776Z,5.15
2023-04-21T14:45:55.137Z,5.20
2023-04-21T14:48:40.457Z,4.88
2023-04-21T14:51:25.641Z,4.60
2023-04-21T14:54:10.679Z,5.18
2023-04-21T14:57:06.702Z,4.70
2023-04-21T15:00:00.794Z,5.05
2023-04-21T15:02:46.263Z,5.00
2023-04-21T15:05:31.493Z,4.97
2023-04-21T15:08:16.793Z,5.28
2023-04-21T15:11:02.549Z,5.15
2023-04-21T15:13:48.219Z,5.28
2023-04-21T15:16:33.576Z,5.28
2023-04-21T15:19:18.941Z,5.60
2023-04-21T15:22:04.017Z,5.65
2023-04-21T15:24:49.218Z,5.90
2023-04-21T15:27:34.625Z,5.65
2023-04-21T15:30:20.155Z,5.90
2023-04-21T15:33:05.612Z,5.20
2023-04-21T15:35:50.802Z,5.72
2023-04-21T15:38:36.199Z,5.60
2023-04-21T15:41:21.527Z,6.00
2023-04-21T15:44:07.109Z,5.88
2023-04-21T15:46:52.411Z,5.30
2023-04-21T15:49:37.937Z,5.28
2023-04-21T15:52:23.167Z,6.18
2023-04-21T15:55:10.880Z,5.10
2023-04-21T15:57:56.243Z,6.38
2023-04-21T16:00:41.774Z,5.60
2023-04-21T16:03:27.625Z,5.20
2023-04-21T16:06:13.087Z,5.10
2023-04-21T16:08:58.435Z,5.75
2023-04-21T16:11:43.765Z,5.03
2023-04-21T16:14:36.152Z,5.53
2023-04-21T16:17:28.402Z,5.07
2023-04-21T16:20:13.881Z,5.35
2023-04-21T16:22:59.234Z,5.65
2023-04-21T16:25:44.490Z,5.40
2023-04-21T16:28:29.752Z,5.05
2023-04-21T16:31:15.162Z,5.10
2023-04-21T16:34:00.740Z,5.05
2023-04-21T16:36:46.072Z,5.20
2023-04-21T16:39:31.683Z,4.78
2023-04-21T16:42:17.033Z,4.88
2023-04-21T16:45:02.845Z,4.88
2023-04-21T16:47:48.025Z,4.78
2023-04-21T16:50:33.562Z,5.30
2023-04-21T16:53:18.747Z,5.13
2023-04-21T16:56:04.140Z,5.25
2023-04-21T16:58:49.258Z,5.20
2023-04-21T17:01:34.640Z,4.75
2023-04-21T17:04:21.061Z,4.78
2023-04-21T17:07:06.394Z,5.32
2023-04-21T17:09:51.897Z,5.03
2023-04-21T17:12:37.404Z,5.35
2023-04-21T17:15:22.747Z,5.50
2023-04-21T17:18:08.382Z,5.22
2023-04-21T17:20:53.798Z,5.10
2023-04-21T17:23:39.201Z,5.10
2023-04-21T17:26:24.632Z,4.80
2023-04-21T17:29:10.262Z,5.65
2023-04-21T17:31:55.779Z,10.07
2023-04-21T17:34:41.208Z,8.82
2023-04-21T17:37:26.717Z,6.20
2023-04-21T17:40:12.594Z,5.50
2023-04-21T17:42:57.827Z,5.18
2023-04-21T17:45:45.092Z,4.97
2023-04-21T17:48:30.506Z,5.25
2023-04-21T17:51:15.871Z,5.20
2023-04-21T17:54:01.309Z,5.30
2023-04-21T17:56:46.834Z,5.68
2023-04-21T17:59:32.193Z,5.35
2023-04-21T18:02:18.080Z,5.75
2023-04-21T18:05:04.234Z,5.43
2023-04-21T18:07:49.607Z,5.40
2023-04-21T18:10:36.322Z,5.30
2023-04-21T18:13:21.908Z,5.43
2023-04-21T18:16:07.388Z,5.40
2023-04-21T18:18:52.587Z,5.30
2023-04-21T18:21:38.200Z,5.20
2023-04-21T18:24:23.593Z,5.40
2023-04-21T18:27:08.941Z,5.20
2023-04-21T18:29:54.367Z,4.97
2023-04-21T18:32:40.190Z,4.95
2023-04-21T18:35:25.569Z,5.30
2023-04-21T18:38:10.975Z,4.70
2023-04-21T18:40:56.340Z,4.68
2023-04-21T18:43:41.835Z,5.22
2023-04-21T18:46:26.946Z,5.10
2023-04-21T18:49:12.385Z,4.20
2023-04-21T18:51:57.720Z,4.65
2023-04-21T18:54:43.097Z,4.70
2023-04-21T18:57:28.483Z,5.30
2023-04-21T19:00:14.302Z,16.33
2023-04-21T19:03:00.638Z,16.33
2023-04-21T19:05:45.836Z,23.75
2023-04-21T19:08:42.197Z,8.35
2023-04-21T19:11:28.834Z,5.13
2023-04-21T19:14:13.798Z,4.97
2023-04-21T19:16:59.284Z,4.97
2023-04-21T19:19:44.670Z,4.78
2023-04-21T19:22:30.047Z,4.50
2023-04-21T19:25:15.592Z,4.65
2023-04-21T19:28:00.990Z,4.72
2023-04-21T19:30:46.392Z,4.60
2023-04-21T19:33:31.883Z,4.53
2023-04-21T19:36:17.252Z,4.57
2023-04-21T19:39:02.591Z,4.38
2023-04-21T19:41:48.044Z,4.55
2023-04-21T19:44:34.011Z,4.28
2023-04-21T19:47:19.156Z,4.50
2023-04-21T19:50:05.167Z,4.40
2023-04-21T19:52:50.200Z,4.20
2023-04-21T19:55:35.686Z,4.80
2023-04-21T19:58:38.235Z,4.28
2023-04-21T20:01:24.534Z,4.80
2023-04-21T20:04:12.116Z,4.28
2023-04-21T20:06:57.783Z,4.85
2023-04-21T20:09:43.208Z,5.18
2023-04-21T20:12:28.664Z,4.78
2023-04-21T20:15:14.182Z,4.75
2023-04-21T20:17:59.643Z,5.07
2023-04-21T20:20:45.095Z,5.47
2023-04-21T20:23:30.588Z,5.20
2023-04-21T20:26:16.611Z,4.97
2023-04-21T20:29:01.478Z,5.20
2023-04-21T20:31:46.883Z,5.20
2023-04-21T20:34:32.222Z,5.20
2023-04-21T20:37:17.710Z,5.07
2023-04-21T20:40:03.701Z,5.00
2023-04-21T20:42:48.900Z,4.75
2023-04-21T20:45:34.286Z,5.40
2023-04-21T20:48:19.746Z,6.07
2023-04-21T20:51:05.387Z,5.68
2023-04-21T20:53:50.740Z,6.47
2023-04-21T20:56:36.133Z,7.05
2023-04-21T20:59:21.620Z,6.85
2023-04-21T21:02:07.546Z,7.20
2023-04-21T21:04:52.853Z,8.63
2023-04-21T21:07:38.145Z,7.30
2023-04-21T21:10:23.821Z,6.63
2023-04-21T21:13:09.308Z,6.18
2023-04-21T21:15:54.763Z,5.65
2023-04-21T21:18:40.307Z,5.93
2023-04-21T21:21:25.676Z,6.03
2023-04-21T21:24:10.983Z,5.93
2023-04-21T21:26:56.372Z,5.55
2023-04-21T21:29:41.833Z,6.05
2023-04-21T21:32:27.379Z,5.78
2023-04-21T21:35:12.612Z,5.72
2023-04-21T21:37:58.109Z,5.35
2023-04-21T21:40:43.526Z,5.00
2023-04-21T21:43:29.015Z,5.22
2023-04-21T21:46:14.766Z,5.32
2023-04-21T21:48:59.935Z,5.07
2023-04-21T21:51:45.272Z,5.22
2023-04-21T21:54:31.047Z,5.10
2023-04-21T21:57:16.576Z,4.90
2023-04-21T22:00:01.931Z,4.90
2023-04-21T22:02:47.377Z,5.30
2023-04-21T22:05:32.546Z,5.57
2023-04-21T22:08:17.828Z,5.00
2023-04-21T22:11:03.338Z,4.88
2023-04-21T22:13:48.703Z,5.13
2023-04-21T22:16:34.318Z,5.43
2023-04-21T22:19:19.720Z,5.00
2023-04-21T22:22:04.812Z,5.55
2023-04-21T22:24:50.202Z,5.50
2023-04-21T22:27:35.537Z,5.50
2023-04-21T22:30:20.928Z,5.68
2023-04-21T22:33:06.171Z,5.88
2023-04-21T22:35:51.353Z,6.00
2023-04-21T22:38:36.830Z,6.40
2023-04-21T22:41:22.198Z,6.35
2023-04-21T22:44:07.635Z,8.88
2023-04-21T22:46:53.130Z,6.97
2023-04-21T22:49:39.098Z,6.68
2023-04-21T22:52:24.531Z,6.00
2023-04-21T22:55:10.258Z,5.90
2023-04-21T22:57:55.239Z,6.20
2023-04-21T23:00:40.243Z,6.80
2023-04-21T23:03:25.419Z,6.32
2023-04-21T23:06:10.730Z,7.03
2023-04-21T23:08:55.735Z,7.10
2023-04-21T23:11:41.343Z,7.13
2023-04-21T23:14:26.424Z,6.82
2023-04-21T23:17:11.763Z,7.50
2023-04-21T23:19:56.739Z,8.07
2023-04-21T23:22:42.111Z,7.75
2023-04-21T23:25:27.707Z,7.13
2023-04-21T23:28:13.122Z,7.55
2023-04-21T23:30:58.804Z,7.70
2023-04-21T23:33:44.020Z,7.40
2023-04-21T23:36:29.241Z,8.52
2023-04-21T23:39:14.194Z,8.27
2023-04-21T23:41:59.566Z,7.85
2023-04-21T23:44:45.154Z,7.90
2023-04-21T23:47:29.928Z,8.77
2023-04-21T23:50:15.124Z,8.43
2023-04-21T23:53:00.495Z,8.70
2023-04-21T23:55:45.931Z,8.30
2023-04-21T23:58:31.406Z,8.55
